Time;durP1;ratioP1;P1;durP2;ratioP2;P2;SDS_P1;SDS_P2;PMS_P1;PMS_P2;Temp;Humidity;BMP_temperature;BMP_pressure;BME280_temperature;BME280_humidity;BME280_pressure;Samples;Min_cycle;Max_cycle;Signal;HPM_P1;HPM_P2
2022/09/02 00:03:45;;;;;;;2.93;2.00;;;17.50;84.30;;;;;;10482240;28;20221;-69
2022/09/02 00:08:46;;;;;;;3.60;2.30;;;17.50;84.70;;;;;;10475232;28;20222;-69
2022/09/02 00:13:49;;;;;;;3.50;2.67;;;17.40;85.00;;;;;;10480569;28;20228;-70
2022/09/02 00:18:50;;;;;;;4.70;2.67;;;17.40;85.30;;;;;;10474720;28;20237;-70
2022/09/02 00:23:52;;;;;;;4.90;2.37;;;17.40;85.60;;;;;;10482068;28;20218;-69
2022/09/02 00:28:52;;;;;;;4.27;2.30;;;17.40;85.80;;;;;;10475823;28;20275;-69
2022/09/02 00:33:53;;;;;;;2.30;2.10;;;17.40;86.00;;;;;;10474502;28;20271;-69
2022/09/02 00:38:57;;;;;;;5.00;2.00;;;17.40;86.10;;;;;;10474747;28;20219;-69
2022/09/02 00:44:02;;;;;;;2.40;2.03;;;17.30;86.50;;;;;;10481575;28;20206;-69
2022/09/02 00:49:25;;;;;;;2.37;2.17;;;17.20;87.10;;;;;;10465858;28;20226;-69
2022/09/02 00:54:29;;;;;;;4.23;2.07;;;17.20;87.30;;;;;;10478322;28;20210;-69
2022/09/02 00:59:58;;;;;;;3.93;1.90;;;17.20;87.20;;;;;;10476298;28;20289;-69
2022/09/02 01:04:59;;;;;;;2.90;1.97;;;17.20;87.30;;;;;;10453212;28;20215;-69
2022/09/02 01:10:02;;;;;;;2.40;1.83;;;17.30;87.10;;;;;;10463833;28;20223;-69
2022/09/02 01:15:04;;;;;;;2.80;1.93;;;17.30;87.20;;;;;;10475232;28;20224;-70
2022/09/02 01:20:10;;;;;;;5.37;2.40;;;17.30;87.30;;;;;;10480047;28;20233;-70
2022/09/02 01:25:26;;;;;;;2.97;2.33;;;17.30;87.60;;;;;;10474178;28;20229;-70
2022/09/02 01:30:27;;;;;;;5.50;2.20;;;17.30;87.90;;;;;;10475075;28;20213;-68
2022/09/02 01:35:27;;;;;;;3.37;2.13;;;17.30;87.90;;;;;;10476652;28;20204;-69
2022/09/02 01:40:30;;;;;;;4.60;2.00;;;17.30;88.00;;;;;;10476002;28;20225;-70
2022/09/02 01:45:31;;;;;;;3.93;2.17;;;17.20;88.30;;;;;;10475112;28;20282;-69
2022/09/02 01:50:32;;;;;;;4.60;2.17;;;17.20;88.50;;;;;;10475970;28;20306;-69
2022/09/02 01:55:33;;;;;;;3.93;2.10;;;17.20;88.60;;;;;;10477735;28;20287;-69
2022/09/02 02:00:34;;;;;;;3.87;2.10;;;17.10;89.00;;;;;;10475878;28;20239;-69
2022/09/02 02:05:35;;;;;;;3.30;1.90;;;17.00;89.50;;;;;;10473852;28;20236;-69
2022/09/02 02:10:38;;;;;;;4.40;1.90;;;16.90;89.90;;;;;;10475857;28;20218;-70
2022/09/02 02:15:41;;;;;;;2.50;2.00;;;16.70;90.20;;;;;;10471444;28;20220;-70
2022/09/02 02:20:41;;;;;;;3.00;2.00;;;16.60;90.50;;;;;;10472035;28;20997;-69
2022/09/02 02:25:42;;;;;;;3.87;2.10;;;16.50;90.90;;;;;;10475978;28;20216;-69
2022/09/02 02:30:43;;;;;;;1.93;1.83;;;16.40;91.30;;;;;;10469776;28;20282;-68
2022/09/02 02:35:43;;;;;;;2.13;1.93;;;16.30;91.60;;;;;;10469789;28;20221;-70
2022/09/02 02:40:44;;;;;;;2.70;2.40;;;16.20;91.90;;;;;;10471211;28;20302;-70
2022/09/02 02:45:44;;;;;;;2.93;2.13;;;16.10;92.30;;;;;;10475343;28;20214;-70
2022/09/02 02:50:45;;;;;;;4.97;2.20;;;16.00;92.70;;;;;;10470999;28;20249;-69
2022/09/02 02:55:45;;;;;;;7.00;2.50;;;16.00;93.00;;;;;;10475645;28;20735;-69
2022/09/02 03:00:47;;;;;;;5.80;2.13;;;15.90;93.30;;;;;;10469077;28;20716;-69
2022/09/02 03:05:49;;;;;;;3.97;2.37;;;15.90;93.60;;;;;;10469171;28;20226;-69
2022/09/02 03:10:53;;;;;;;6.20;2.97;;;15.80;94.00;;;;;;10475797;28;20317;-70
2022/09/02 03:15:53;;;;;;;5.77;2.90;;;15.70;94.30;;;;;;10469316;28;20242;-69
2022/09/02 03:20:54;;;;;;;5.23;2.90;;;15.60;94.70;;;;;;10475731;28;20242;-69
2022/09/02 03:25:55;;;;;;;3.10;2.30;;;15.60;95.00;;;;;;10464458;28;20220;-69
2022/09/02 03:30:55;;;;;;;5.17;2.50;;;15.50;95.20;;;;;;10476523;28;20224;-70
2022/09/02 03:35:56;;;;;;;2.50;2.30;;;15.40;95.60;;;;;;10476699;28;20720;-70
2022/09/02 03:40:56;;;;;;;4.30;2.30;;;15.40;96.00;;;;;;10484364;28;20230;-69
2022/09/02 03:45:57;;;;;;;3.10;1.80;;;15.30;96.50;;;;;;10475602;28;20216;-69
2022/09/02 03:50:58;;;;;;;4.40;2.30;;;15.20;97.10;;;;;;10484007;28;20229;-69
2022/09/02 03:56:07;;;;;;;5.53;2.40;;;15.10;97.60;;;;;;10475544;28;20378;-69
2022/09/02 04:01:14;;;;;;;2.73;2.40;;;15.10;98.20;;;;;;10476993;28;20575;-69
2022/09/02 04:06:18;;;;;;;3.57;2.30;;;15.10;98.80;;;;;;10483624;28;20306;-69
2022/09/02 04:11:20;;;;;;;2.57;2.20;;;15.00;99.20;;;;;;10477613;28;20502;-70
2022/09/02 04:16:27;;;;;;;2.43;1.93;;;15.00;99.90;;;;;;10476118;28;20712;-70
2022/09/02 04:21:31;;;;;;;3.97;2.30;;;14.90;99.90;;;;;;10479732;28;20317;-69
2022/09/02 04:26:32;;;;;;;3.37;2.27;;;14.90;99.90;;;;;;10474827;28;20220;-69
2022/09/02 04:31:32;;;;;;;2.93;2.47;;;14.90;99.90;;;;;;10479125;28;20229;-69
2022/09/02 04:36:33;;;;;;;5.50;2.30;;;14.80;99.90;;;;;;10478360;28;20246;-69
2022/09/02 04:41:34;;;;;;;3.30;2.10;;;14.90;99.90;;;;;;10478782;28;21288;-69
2022/09/02 04:46:35;;;;;;;3.47;2.30;;;14.90;99.90;;;;;;10477508;28;20279;-69
2022/09/02 04:51:36;;;;;;;7.07;2.77;;;14.90;99.90;;;;;;10478022;28;20312;-69
2022/09/02 04:56:37;;;;;;;5.00;2.63;;;15.00;99.90;;;;;;10475100;28;20685;-69
2022/09/02 05:01:37;;;;;;;5.10;2.70;;;15.10;99.90;;;;;;10476196;28;20279;-69
2022/09/02 05:06:38;;;;;;;4.17;2.40;;;15.10;99.90;;;;;;10478408;28;20235;-69
2022/09/02 05:11:39;;;;;;;3.23;2.03;;;15.20;99.90;;;;;;10471125;28;20217;-69
2022/09/02 05:16:41;;;;;;;3.03;2.60;;;15.30;99.90;;;;;;10475357;28;20281;-69
2022/09/02 05:21:43;;;;;;;3.23;2.53;;;15.40;99.90;;;;;;10478571;28;20241;-70
2022/09/02 05:26:44;;;;;;;12.77;3.93;;;15.50;99.90;;;;;;10474860;28;20679;-70
2022/09/02 05:31:45;;;;;;;6.33;2.90;;;15.60;99.90;;;;;;10471728;28;20223;-69
2022/09/02 05:36:45;;;;;;;4.13;2.40;;;15.70;99.90;;;;;;10478277;28;20221;-70
2022/09/02 05:41:46;;;;;;;2.57;2.00;;;15.80;99.90;;;;;;10473515;28;20799;-70
2022/09/02 05:46:46;;;;;;;6.73;2.50;;;16.00;99.90;;;;;;10477703;28;20249;-70
2022/09/02 05:51:53;;;;;;;4.33;2.20;;;16.00;99.90;;;;;;10471607;28;20258;-69
2022/09/02 05:56:57;;;;;;;3.83;1.63;;;16.30;99.90;;;;;;10470276;28;20225;-69
2022/09/02 06:01:58;;;;;;;3.13;2.20;;;18.70;97.20;;;;;;10478803;28;20234;-70
2022/09/02 06:06:59;;;;;;;3.87;1.83;;;21.50;90.00;;;;;;10478740;28;20230;-71
2022/09/02 06:11:59;;;;;;;8.23;2.00;;;23.80;74.30;;;;;;10478742;28;20298;-71
2022/09/02 06:17:00;;;;;;;3.60;1.87;;;24.50;67.00;;;;;;10461979;28;20232;-70
2022/09/02 06:22:02;;;;;;;3.73;1.97;;;23.50;66.40;;;;;;10478193;28;20605;-70
2022/09/02 06:27:02;;;;;;;8.07;2.63;;;21.20;74.30;;;;;;10469837;28;20326;-70
2022/09/02 06:32:03;;;;;;;3.87;1.97;;;19.80;80.90;;;;;;10476705;28;20348;-70
2022/09/02 06:37:04;;;;;;;6.10;2.20;;;19.20;84.10;;;;;;10477907;28;20211;-70
2022/09/02 06:42:05;;;;;;;2.97;2.47;;;18.90;86.60;;;;;;10469422;28;20226;-70
2022/09/02 06:47:05;;;;;;;3.10;1.90;;;18.90;87.20;;;;;;10468513;28;20219;-69
2022/09/02 06:52:07;;;;;;;4.03;2.07;;;18.90;87.40;;;;;;10491812;28;20321;-70
2022/09/02 06:57:08;;;;;;;2.30;1.80;;;18.90;87.20;;;;;;10468486;28;20211;-70
2022/09/02 07:02:08;;;;;;;2.47;2.13;;;19.00;87.40;;;;;;10467215;28;20231;-70
2022/09/02 07:07:10;;;;;;;7.50;2.00;;;19.20;86.80;;;;;;10475383;28;20222;-70
2022/09/02 07:12:11;;;;;;;5.13;2.07;;;19.20;86.20;;;;;;10469993;28;20768;-70
2022/09/02 07:17:20;;;;;;;3.60;2.07;;;19.20;86.60;;;;;;10475428;28;20332;-71
2022/09/02 07:22:21;;;;;;;3.10;2.00;;;19.40;86.40;;;;;;10467376;28;20743;-69
2022/09/02 07:27:28;;;;;;;6.97;2.03;;;19.50;85.50;;;;;;10472448;28;20298;-70
2022/09/02 07:32:30;;;;;;;3.27;2.40;;;19.50;85.20;;;;;;10471881;28;20267;-70
2022/09/02 07:37:31;;;;;;;4.47;1.80;;;20.50;84.00;;;;;;10471769;28;20350;-70
2022/09/02 07:42:31;;;;;;;2.47;1.67;;;24.20;69.10;;;;;;10471858;28;20234;-70
2022/09/02 07:47:32;;;;;;;4.30;1.77;;;26.90;59.00;;;;;;10470516;28;20721;-70
2022/09/02 07:52:33;;;;;;;1.93;1.57;;;28.90;52.50;;;;;;10472144;28;20218;-70
2022/09/02 07:57:33;;;;;;;5.63;1.70;;;30.20;48.20;;;;;;10470935;28;20219;-69
2022/09/02 08:02:34;;;;;;;3.60;1.70;;;29.50;47.70;;;;;;10472166;28;20264;-69
2022/09/02 08:07:35;;;;;;;4.00;1.83;;;30.90;45.80;;;;;;10471033;28;20312;-70
2022/09/02 08:12:36;;;;;;;4.13;1.73;;;30.30;45.40;;;;;;10470934;28;20215;-70
2022/09/02 08:17:41;;;;;;;5.53;1.70;;;30.20;45.40;;;;;;10471755;28;20647;-70
2022/09/02 08:22:42;;;;;;;5.30;1.77;;;30.40;44.50;;;;;;10479412;28;20229;-71
2022/09/02 08:27:44;;;;;;;2.63;1.60;;;30.70;43.20;;;;;;10491036;28;20296;-70
2022/09/02 08:32:45;;;;;;;3.50;1.60;;;29.90;44.10;;;;;;10476064;28;20227;-71
2022/09/02 08:37:45;;;;;;;3.80;1.30;;;30.60;43.30;;;;;;10480662;28;20596;-71
2022/09/02 08:42:52;;;;;;;4.93;1.73;;;31.20;42.30;;;;;;10474275;28;20711;-72
2022/09/02 08:48:01;;;;;;;4.97;2.00;;;31.30;41.60;;;;;;10481028;28;20222;-70
2022/09/02 08:53:46;;;;;;;2.93;1.53;;;30.30;42.00;;;;;;10464864;28;20352;-70
2022/09/02 08:58:51;;;;;;;4.40;1.37;;;30.00;42.70;;;;;;10446312;28;20747;-71
2022/09/02 09:04:20;;;;;;;3.03;1.60;;;29.90;42.80;;;;;;10474371;28;20258;-70
2022/09/02 09:09:48;;;;;;;5.27;1.40;;;31.10;41.20;;;;;;10470064;28;20228;-70
2022/09/02 09:15:17;;;;;;;1.30;1.20;;;31.90;39.30;;;;;;10489864;28;20351;-69
2022/09/02 09:20:23;;;;;;;2.53;1.70;;;31.80;39.80;;;;;;10466356;28;20223;-70
2022/09/02 09:25:28;;;;;;;4.00;1.40;;;32.90;38.30;;;;;;10472362;28;20218;-70
2022/09/02 09:30:29;;;;;;;1.60;1.23;;;33.50;36.70;;;;;;10475384;28;20702;-73
2022/09/02 09:35:54;;;;;;;3.03;1.03;;;34.00;35.80;;;;;;10480694;28;20214;-70
2022/09/02 09:41:23;;;;;;;2.27;1.10;;;33.10;35.90;;;;;;10472568;28;20231;-69
2022/09/02 09:46:26;;;;;;;1.80;1.50;;;32.00;36.40;;;;;;10469739;28;20249;-71
2022/09/02 09:51:27;;;;;;;5.30;1.37;;;31.90;36.10;;;;;;10474768;28;20691;-71
2022/09/02 09:56:31;;;;;;;2.30;1.40;;;31.30;36.50;;;;;;10472565;28;20225;-71
2022/09/02 10:01:32;;;;;;;4.33;1.10;;;33.50;33.40;;;;;;10474113;28;20235;-71
2022/09/02 10:06:33;;;;;;;1.50;1.40;;;33.50;33.70;;;;;;10474552;28;20254;-71
2022/09/02 10:11:36;;;;;;;1.57;0.90;;;32.70;34.00;;;;;;10474348;28;20254;-71
2022/09/02 10:16:38;;;;;;;7.00;1.60;;;33.00;33.50;;;;;;10475311;28;20250;-70
2022/09/02 10:22:00;;;;;;;3.07;1.20;;;32.10;34.20;;;;;;10470348;28;20234;-70
2022/09/02 10:27:07;;;;;;;6.30;1.47;;;32.10;34.60;;;;;;10477890;28;20227;-70
2022/09/02 10:32:11;;;;;;;2.70;1.20;;;31.80;34.40;;;;;;10477007;28;20321;-70
2022/09/02 10:37:18;;;;;;;1.40;1.13;;;31.70;34.70;;;;;;10471173;28;20583;-71
2022/09/02 10:42:27;;;;;;;2.23;1.40;;;33.00;33.70;;;;;;10474119;28;20250;-70
2022/09/02 10:47:36;;;;;;;3.17;1.53;;;32.20;34.20;;;;;;10469661;28;20369;-71
2022/09/02 10:52:52;;;;;;;1.33;1.17;;;33.70;32.40;;;;;;10473772;28;20219;-69
2022/09/02 10:58:15;;;;;;;3.63;1.80;;;34.60;30.50;;;;;;10485240;28;20223;-70
2022/09/02 11:03:48;;;;;;;4.30;1.33;;;35.00;29.90;;;;;;10464279;28;20325;-70
2022/09/02 11:08:54;;;;;;;3.13;1.20;;;33.90;30.80;;;;;;10469478;28;20268;-71
2022/09/02 11:14:23;;;;;;;6.43;1.30;;;31.90;33.00;;;;;;10468718;28;20220;-69
2022/09/02 11:19:36;;;;;;;1.53;1.00;;;29.10;37.90;;;;;;10465995;28;20231;-70
2022/09/02 11:25:04;;;;;;;2.93;1.17;;;26.70;41.90;;;;;;10466968;28;20221;-69
2022/09/02 11:30:11;;;;;;;5.80;1.10;;;26.10;42.90;;;;;;10475481;28;20225;-69
2022/09/02 11:35:18;;;;;;;4.90;1.53;;;25.80;43.00;;;;;;10474532;28;20183;-69
2022/09/02 11:40:28;;;;;;;2.37;1.10;;;25.30;43.00;;;;;;10470801;28;20279;-69
2022/09/02 11:46:08;;;;;;;1.63;0.87;;;25.30;43.50;;;;;;10472060;28;20721;-70
2022/09/02 11:51:20;;;;;;;1.60;1.10;;;25.20;43.20;;;;;;10444653;28;20216;-70
2022/09/02 11:56:34;;;;;;;3.47;1.00;;;25.00;43.30;;;;;;10481311;28;20574;-69
2022/09/02 12:01:46;;;;;;;3.07;1.07;;;25.20;42.90;;;;;;10480810;28;20226;-71
2022/09/02 12:07:05;;;;;;;2.27;1.00;;;25.20;42.70;;;;;;10475716;28;20238;-70
2022/09/02 12:12:06;;;;;;;2.20;1.13;;;25.00;42.90;;;;;;10465301;28;20207;-70
2022/09/02 12:17:07;;;;;;;1.97;1.20;;;25.00;43.30;;;;;;10475100;28;20219;-70
2022/09/02 12:22:14;;;;;;;1.10;1.00;;;24.90;43.50;;;;;;10480784;28;20649;-71
2022/09/02 12:27:28;;;;;;;1.40;1.03;;;25.00;43.00;;;;;;10476855;28;20212;-70
2022/09/02 12:32:50;;;;;;;1.87;1.23;;;25.00;42.90;;;;;;10478389;28;20649;-70
2022/09/02 12:37:56;;;;;;;2.63;0.83;;;24.80;42.90;;;;;;10477593;28;20215;-69
2022/09/02 12:42:59;;;;;;;2.97;1.17;;;24.90;42.60;;;;;;10473332;28;20228;-70
2022/09/02 12:48:12;;;;;;;2.80;1.03;;;24.60;42.70;;;;;;10481874;28;20223;-71
2022/09/02 12:53:23;;;;;;;1.73;1.10;;;24.70;43.50;;;;;;10466672;28;20277;-70
2022/09/02 12:58:25;;;;;;;2.10;1.00;;;24.90;43.60;;;;;;10476773;28;20793;-70
2022/09/02 13:03:45;;;;;;;3.13;1.20;;;24.90;43.30;;;;;;10476181;28;20231;-70
2022/09/02 13:09:06;;;;;;;1.23;1.00;;;24.70;44.50;;;;;;10479193;28;20247;-70
2022/09/02 13:14:26;;;;;;;3.73;1.00;;;24.70;44.30;;;;;;10473739;28;20256;-70
2022/09/02 13:20:01;;;;;;;1.97;0.93;;;24.90;44.00;;;;;;10474965;28;20335;-70
2022/09/02 13:25:20;;;;;;;2.97;1.10;;;25.00;44.00;;;;;;10461022;28;20303;-69
2022/09/02 13:31:02;;;;;;;2.37;0.90;;;24.90;44.10;;;;;;10476479;28;20223;-71
2022/09/02 13:36:03;;;;;;;3.83;1.00;;;24.80;43.80;;;;;;10462830;28;20601;-71
2022/09/02 13:41:04;;;;;;;3.73;1.00;;;24.70;44.20;;;;;;10479201;28;20364;-71
2022/09/02 13:46:04;;;;;;;4.07;1.23;;;24.80;44.20;;;;;;10471808;28;20302;-70
2022/09/02 13:51:12;;;;;;;4.40;1.13;;;25.10;44.10;;;;;;10479928;28;20231;-70
2022/09/02 13:56:14;;;;;;;3.67;1.27;;;25.10;43.40;;;;;;10473111;28;20220;-71
2022/09/02 14:01:26;;;;;;;1.47;1.30;;;25.10;43.20;;;;;;10471004;28;20302;-71
2022/09/02 14:06:35;;;;;;;1.87;0.90;;;25.00;42.90;;;;;;10475589;28;20248;-71
2022/09/02 14:11:45;;;;;;;3.17;1.77;;;25.00;43.00;;;;;;10473950;28;20265;-71
2022/09/02 14:16:45;;;;;;;3.43;0.97;;;24.80;42.90;;;;;;10474534;28;20364;-71
2022/09/02 14:21:55;;;;;;;2.40;0.90;;;24.80;43.00;;;;;;10471392;28;20318;-71
2022/09/02 14:26:57;;;;;;;1.77;1.03;;;24.70;42.60;;;;;;10477598;28;20223;-70
2022/09/02 14:32:10;;;;;;;3.47;1.07;;;24.90;42.70;;;;;;10469429;28;20262;-71
2022/09/02 14:37:22;;;;;;;1.03;0.93;;;25.10;42.50;;;;;;10463555;28;20703;-71
2022/09/02 14:42:22;;;;;;;2.47;1.10;;;25.00;42.20;;;;;;10472834;28;20219;-71
2022/09/02 14:47:23;;;;;;;1.37;0.90;;;25.00;42.30;;;;;;10472105;28;20651;-71
2022/09/02 14:52:32;;;;;;;0.93;0.93;;;24.80;42.60;;;;;;10473801;28;20242;-71
2022/09/02 14:57:36;;;;;;;2.10;1.10;;;24.80;42.90;;;;;;10472305;28;20216;-71
2022/09/02 15:02:45;;;;;;;2.67;1.20;;;24.80;42.30;;;;;;10472345;28;20315;-71
2022/09/02 15:07:45;;;;;;;3.57;1.00;;;24.80;42.20;;;;;;10473884;28;20225;-70
2022/09/02 15:12:56;;;;;;;3.03;0.90;;;24.80;42.70;;;;;;10467818;28;20606;-71
2022/09/02 15:17:56;;;;;;;2.50;1.20;;;24.80;42.60;;;;;;10469249;28;20219;-71
2022/09/02 15:22:57;;;;;;;2.97;1.20;;;24.70;42.20;;;;;;10475832;28;20288;-70
2022/09/02 15:27:58;;;;;;;2.47;1.20;;;24.70;42.50;;;;;;10475220;28;20222;-69
2022/09/02 15:33:05;;;;;;;2.10;0.90;;;24.60;41.60;;;;;;10468249;28;20236;-71
2022/09/02 15:38:07;;;;;;;2.60;1.20;;;24.60;41.60;;;;;;10452630;28;20330;-71
2022/09/02 15:43:08;;;;;;;3.13;0.90;;;24.70;41.90;;;;;;10474611;28;20219;-70
2022/09/02 15:48:08;;;;;;;2.20;1.17;;;24.60;41.90;;;;;;10468189;28;20219;-70
2022/09/02 15:53:09;;;;;;;5.10;1.03;;;24.50;42.00;;;;;;10474685;28;20224;-71
2022/09/02 15:58:10;;;;;;;2.13;1.20;;;24.50;42.10;;;;;;10467511;28;20258;-71
2022/09/02 16:03:10;;;;;;;4.17;1.17;;;24.40;42.30;;;;;;10468673;28;20224;-71
2022/09/02 16:08:11;;;;;;;3.13;1.13;;;24.30;42.70;;;;;;10472330;28;20780;-70
2022/09/02 16:13:12;;;;;;;3.20;1.40;;;24.20;42.80;;;;;;10468468;28;20219;-71
2022/09/02 16:18:13;;;;;;;1.60;1.23;;;24.20;43.30;;;;;;10474500;28;20722;-71
2022/09/02 16:23:13;;;;;;;2.03;1.00;;;24.20;43.20;;;;;;10467722;28;20237;-72
2022/09/02 16:28:14;;;;;;;1.47;0.90;;;24.10;43.40;;;;;;10472245;28;20248;-72
2022/09/02 16:33:14;;;;;;;3.17;0.87;;;24.10;43.90;;;;;;10469092;28;20251;-70
2022/09/02 16:38:15;;;;;;;2.50;1.00;;;24.00;43.80;;;;;;10474094;28;20680;-70
2022/09/02 16:43:16;;;;;;;1.37;0.77;;;23.90;44.00;;;;;;10471778;28;20396;-71
2022/09/02 16:48:21;;;;;;;1.77;1.10;;;23.90;44.30;;;;;;10476109;28;20224;-70
2022/09/02 16:53:22;;;;;;;2.03;1.17;;;23.80;44.30;;;;;;10481917;28;20225;-70
2022/09/02 16:58:23;;;;;;;2.83;1.03;;;23.80;44.60;;;;;;10476503;28;20625;-70
2022/09/02 17:03:23;;;;;;;2.43;0.87;;;23.70;44.80;;;;;;10471790;28;20288;-71
2022/09/02 17:08:24;;;;;;;1.73;1.10;;;23.60;44.50;;;;;;10479179;28;20772;-71
2022/09/02 17:13:24;;;;;;;3.93;1.10;;;23.50;45.00;;;;;;10474317;28;20222;-70
2022/09/02 17:18:25;;;;;;;3.87;1.20;;;23.50;46.00;;;;;;10476601;28;20230;-71
2022/09/02 17:23:25;;;;;;;1.23;0.90;;;23.40;45.50;;;;;;10477182;28;20220;-71
2022/09/02 17:28:26;;;;;;;2.50;1.20;;;23.30;45.60;;;;;;10476004;28;20317;-70
2022/09/02 17:33:27;;;;;;;4.13;1.23;;;23.30;46.20;;;;;;10476918;28;20823;-71
2022/09/02 17:38:27;;;;;;;3.23;1.17;;;23.10;45.70;;;;;;10475553;28;20226;-71
2022/09/02 17:43:28;;;;;;;1.93;1.37;;;23.10;45.80;;;;;;10476334;28;20231;-71
2022/09/02 17:48:28;;;;;;;4.93;1.50;;;23.00;45.90;;;;;;10475817;28;20221;-72
2022/09/02 17:53:29;;;;;;;3.17;1.10;;;23.00;46.20;;;;;;10469369;28;20211;-70
2022/09/02 17:58:44;;;;;;;2.23;0.93;;;22.90;46.30;;;;;;10473795;28;20218;-71
2022/09/02 18:04:19;;;;;;;4.87;1.30;;;22.80;46.50;;;;;;10473723;28;20216;-71
2022/09/02 18:09:22;;;;;;;4.60;1.10;;;22.70;46.80;;;;;;10467242;28;20216;-73
2022/09/02 18:14:35;;;;;;;2.00;0.87;;;22.50;47.00;;;;;;10475523;28;20220;-71
2022/09/02 18:19:39;;;;;;;3.10;0.97;;;22.40;47.30;;;;;;10475169;28;20717;-72
2022/09/02 18:25:07;;;;;;;4.43;1.00;;;22.30;47.70;;;;;;10473693;28;20235;-71
2022/09/02 18:30:12;;;;;;;2.73;1.27;;;22.20;47.90;;;;;;10477923;28;20223;-72
2022/09/02 18:35:37;;;;;;;4.87;1.00;;;22.10;48.30;;;;;;10468981;28;20191;-71
2022/09/02 18:41:00;;;;;;;5.00;1.17;;;22.00;48.60;;;;;;10473349;28;20226;-70
2022/09/02 18:46:03;;;;;;;7.63;1.20;;;21.90;49.00;;;;;;10477719;28;20215;-71
2022/09/02 18:51:23;;;;;;;1.70;1.20;;;21.70;49.40;;;;;;10464034;28;20277;-71
2022/09/02 18:56:29;;;;;;;5.83;1.50;;;21.60;49.90;;;;;;10472677;28;20269;-72
2022/09/02 19:01:35;;;;;;;4.90;1.40;;;21.50;50.20;;;;;;10475854;28;20721;-71
2022/09/02 19:06:36;;;;;;;2.93;1.70;;;21.40;50.50;;;;;;10471992;28;20768;-70
2022/09/02 19:11:40;;;;;;;7.27;1.40;;;21.30;50.80;;;;;;10472382;28;20220;-70
2022/09/02 19:16:41;;;;;;;5.70;1.70;;;21.30;51.10;;;;;;10474437;28;20226;-71
2022/09/02 19:21:54;;;;;;;4.60;1.50;;;21.20;51.40;;;;;;10474426;28;20246;-70
2022/09/02 19:27:00;;;;;;;3.17;1.33;;;21.10;51.60;;;;;;10476598;28;20272;-71
2022/09/02 19:32:01;;;;;;;1.60;1.20;;;21.00;52.30;;;;;;10476832;28;20215;-70
2022/09/02 19:37:03;;;;;;;2.27;1.57;;;20.80;52.40;;;;;;10468412;28;20215;-70
2022/09/02 19:42:05;;;;;;;4.73;1.70;;;20.80;52.70;;;;;;10460469;28;20270;-71
2022/09/02 19:47:08;;;;;;;3.80;1.50;;;20.70;53.10;;;;;;10470164;28;20207;-70
2022/09/02 19:52:10;;;;;;;2.10;1.33;;;20.60;53.30;;;;;;10475552;28;20234;-70
2022/09/02 19:57:11;;;;;;;2.33;1.47;;;20.50;53.50;;;;;;10469083;28;20226;-71
2022/09/02 20:02:12;;;;;;;1.87;1.03;;;20.40;53.80;;;;;;10474053;28;20578;-70
2022/09/02 20:07:13;;;;;;;3.43;1.10;;;20.40;54.10;;;;;;10462924;28;20212;-70
2022/09/02 20:12:13;;;;;;;1.93;1.10;;;20.30;54.10;;;;;;10473020;28;20234;-71
2022/09/02 20:17:19;;;;;;;3.27;1.73;;;20.20;54.40;;;;;;10475303;28;20212;-71
2022/09/02 20:22:20;;;;;;;7.00;1.43;;;20.20;54.80;;;;;;10480695;28;20225;-70
2022/09/02 20:27:43;;;;;;;5.03;1.60;;;20.10;55.10;;;;;;10476810;28;20222;-71
2022/09/02 20:32:57;;;;;;;5.37;1.90;;;20.10;55.80;;;;;;10476927;28;20717;-71
2022/09/02 20:38:01;;;;;;;5.13;1.70;;;20.10;55.20;;;;;;10482344;28;20211;-71
2022/09/02 20:43:39;;;;;;;2.10;1.63;;;20.10;55.30;;;;;;10470845;28;20284;-71
2022/09/02 20:48:52;;;;;;;3.97;1.67;;;20.00;55.50;;;;;;10476308;28;20272;-72
2022/09/02 20:54:10;;;;;;;4.03;1.80;;;20.00;55.60;;;;;;10475476;28;20233;-70
2022/09/02 20:59:30;;;;;;;2.37;1.50;;;20.00;55.70;;;;;;10466228;28;20258;-70
2022/09/02 21:05:04;;;;;;;2.87;1.60;;;19.90;55.90;;;;;;10469513;28;20600;-72
2022/09/02 21:10:25;;;;;;;3.27;2.10;;;19.80;56.20;;;;;;10460788;28;20242;-70
2022/09/02 21:15:44;;;;;;;5.20;2.03;;;19.80;56.40;;;;;;10475857;28;20298;-70
2022/09/02 21:21:14;;;;;;;4.40;1.50;;;19.70;56.60;;;;;;10474443;28;20227;-70
2022/09/02 21:26:19;;;;;;;3.43;1.20;;;19.70;56.80;;;;;;10467944;28;20231;-70
2022/09/02 21:31:42;;;;;;;2.40;1.50;;;19.70;56.90;;;;;;10477967;28;20222;-71
2022/09/02 21:36:43;;;;;;;5.03;1.90;;;19.60;57.10;;;;;;10478165;28;20243;-71
2022/09/02 21:41:54;;;;;;;4.20;2.40;;;19.50;57.30;;;;;;10474562;28;20337;-70
2022/09/02 21:47:05;;;;;;;2.93;1.97;;;19.50;58.00;;;;;;10473730;28;20626;-70
2022/09/02 21:52:29;;;;;;;3.17;2.00;;;19.50;57.50;;;;;;10472206;28;20234;-71
2022/09/02 21:58:09;;;;;;;4.13;2.20;;;19.50;57.60;;;;;;10473761;28;20221;-70
2022/09/02 22:03:25;;;;;;;5.63;2.17;;;19.40;57.70;;;;;;10445918;28;20318;-70
2022/09/02 22:08:49;;;;;;;3.60;2.20;;;19.30;57.70;;;;;;10479458;28;20257;-71
2022/09/02 22:13:49;;;;;;;5.00;1.97;;;19.30;57.90;;;;;;10487712;28;20642;-70
2022/09/02 22:19:01;;;;;;;4.83;1.27;;;19.30;58.00;;;;;;10475701;28;20229;-71
2022/09/02 22:24:01;;;;;;;1.90;1.70;;;19.30;58.00;;;;;;10478311;28;20230;-71
2022/09/02 22:29:26;;;;;;;2.60;1.60;;;19.20;58.10;;;;;;10469986;28;20631;-71
2022/09/02 22:34:32;;;;;;;3.27;1.70;;;19.20;58.30;;;;;;10468275;28;20225;-71
2022/09/02 22:39:51;;;;;;;4.63;1.77;;;19.10;58.40;;;;;;10473465;28;20223;-71
2022/09/02 22:56:09;;;;;;;8.53;1.80;;;18.90;59.00;;;;;;10462459;28;20223;-71
2022/09/02 23:01:38;;;;;;;2.93;1.70;;;18.90;59.30;;;;;;10473206;28;20248;-70
2022/09/02 23:06:39;;;;;;;3.73;2.17;;;18.80;60.10;;;;;;10460732;28;20221;-72
2022/09/02 23:12:06;;;;;;;2.33;1.77;;;18.70;59.80;;;;;;10468347;28;20211;-71
2022/09/02 23:17:33;;;;;;;3.67;1.80;;;18.70;60.00;;;;;;10455492;28;20222;-70
2022/09/02 23:22:45;;;;;;;1.30;1.20;;;18.60;60.20;;;;;;10471821;28;20774;-70
2022/09/02 23:28:03;;;;;;;6.30;2.00;;;18.60;60.60;;;;;;10474675;28;20238;-70
2022/09/02 23:33:29;;;;;;;2.97;1.40;;;18.60;60.80;;;;;;10466397;28;20598;-71
2022/09/02 23:38:45;;;;;;;1.50;1.20;;;18.50;61.00;;;;;;10472738;28;20293;-70
2022/09/02 23:43:46;;;;;;;3.90;1.53;;;18.40;61.20;;;;;;10473690;28;20224;-69
2022/09/02 23:49:13;;;;;;;4.33;0.87;;;18.40;61.50;;;;;;10472546;28;20229;-71
2022/09/02 23:54:27;;;;;;;1.87;1.20;;;18.30;61.70;;;;;;10469924;28;20237;-70
2022/09/02 23:59:35;;;;;;;1.73;1.40;;;18.30;62.00;;;;;;10479045;28;20246;-70
